Scotland, Texas
Current Conditions -  °F | °C
As of 1:55 PM on Friday 24 Oct 2014 (Local Time) from KCWC Reporting Station
Clear Clear  
Wind Chill: 83°   Ceiling: Unl
Heat Index: 83°   Visibility: 10mi
Dew Point: 59°   Wind: 12mph
Humidity: 44%   Direction: 230°SW
Pressure: 30.09"   Gusts: 17mph
Location:  33.66°N, 98.47°W
Report Text: KCWC 241855Z AUTO 23010G15KT 10SM CLR 29/15 A3009 RMK AO2 T02850151
Loading
Personal Weather Stations






























Interactive Weather Map
Tropical Storm Tracking
New forecast layout! Learn more

10-Day Weather Forecast

Advertisements
Track Severe Weather on mobile